createdAt,value
2022-11-17T00:04:15.018Z,97071.56
2022-11-17T00:09:18.331Z,97058.47
2022-11-17T00:14:36.727Z,97049.06
2022-11-17T00:19:58.476Z,97022.66
2022-11-17T00:25:01.184Z,96994.56
2022-11-17T00:30:04.038Z,96979.31
2022-11-17T00:35:08.501Z,96960.31
2022-11-17T00:40:11.898Z,96942.41
2022-11-17T00:45:14.633Z,96946.16
2022-11-17T00:50:18.818Z,96930.94
2022-11-17T00:55:21.576Z,96942.91
2022-11-17T01:00:24.264Z,96926.66
2022-11-17T01:05:32.880Z,96922.34
2022-11-17T01:10:36.008Z,96917.25
2022-11-17T01:15:38.679Z,96917.25
2022-11-17T01:20:42.661Z,96906.56
2022-11-17T01:25:45.317Z,96897.44
2022-11-17T01:30:48.037Z,96877.13
2022-11-17T01:35:52.032Z,96881.16
2022-11-17T01:40:54.766Z,96872.88
2022-11-17T01:45:57.488Z,96853.88
2022-11-17T01:51:01.922Z,96841.31
2022-11-17T01:56:08.139Z,96824.19
2022-11-17T02:01:11.300Z,96814.59
2022-11-17T02:06:18.270Z,96810.56
2022-11-17T02:11:21.722Z,96793.97
2022-11-17T02:16:24.419Z,96788.09
2022-11-17T02:22:16.320Z,96768.56
2022-11-17T02:27:45.564Z,96765.91
2022-11-17T02:32:58.617Z,96765.59
2022-11-17T02:38:07.293Z,96769.34
2022-11-17T02:43:31.852Z,96755.44
2022-11-17T02:48:37.288Z,96763.69
2022-11-17T02:53:40.788Z,96744.41
2022-11-17T02:58:44.773Z,96749.75
2022-11-17T03:04:00.907Z,96731.63
2022-11-17T03:09:11.321Z,96717.72
2022-11-17T03:14:21.789Z,96710.22
2022-11-17T03:19:28.154Z,96702.19
2022-11-17T03:24:33.590Z,96712.88
2022-11-17T03:29:41.561Z,96708.03
2022-11-17T03:34:47.129Z,96700.28
2022-11-17T03:39:52.705Z,96688.78
2022-11-17T03:44:59.935Z,96695.75
2022-11-17T03:50:05.683Z,96684.50
2022-11-17T03:55:09.291Z,96664.19
2022-11-17T04:00:16.017Z,96659.91
2022-11-17T04:05:19.091Z,96654.03
2022-11-17T04:10:23.554Z,96654.56
2022-11-17T04:15:45.256Z,96642.53
2022-11-17T04:20:50.796Z,96652.97
2022-11-17T04:26:12.900Z,96639.63
2022-11-17T04:31:18.423Z,96632.13
2022-11-17T04:36:22.258Z,96636.63
2022-11-17T04:41:43.732Z,96636.91
2022-11-17T04:46:47.760Z,96622.50
2022-11-17T04:51:50.977Z,96599.53
2022-11-17T04:56:54.632Z,96609.41
2022-11-17T05:02:04.134Z,96601.84
2022-11-17T05:07:09.270Z,96605.91
2022-11-17T05:12:29.580Z,96602.69
2022-11-17T05:17:33.542Z,96596.78
2022-11-17T05:22:50.094Z,96573.31
2022-11-17T05:27:54.253Z,96595.72
2022-11-17T05:32:58.203Z,96598.38
2022-11-17T05:38:00.840Z,96590.97
2022-11-17T05:43:03.476Z,96608.84
2022-11-17T05:48:08.051Z,96605.59
2022-11-17T05:53:10.772Z,96602.13
2022-11-17T05:58:16.793Z,96601.31
2022-11-17T06:03:22.285Z,96605.81
2022-11-17T06:08:24.995Z,96595.16
2022-11-17T06:13:29.084Z,96594.84
2022-11-17T06:18:35.725Z,96610.38
2022-11-17T06:23:38.991Z,96644.28
2022-11-17T06:28:43.371Z,96659.47
2022-11-17T06:33:47.857Z,96663.75
2022-11-17T06:38:50.599Z,96645.06
2022-11-17T06:43:53.203Z,96654.72
2022-11-17T06:48:57.219Z,96663.25
2022-11-17T06:53:59.894Z,96664.56
2022-11-17T06:59:02.507Z,96652.13
2022-11-17T07:04:07.427Z,96643.34
2022-11-17T07:09:10.300Z,96647.88
2022-11-17T07:14:12.933Z,96652.72
2022-11-17T07:19:16.885Z,96650.31
2022-11-17T07:24:19.550Z,96648.16
2022-11-17T07:29:22.177Z,96652.47
2022-11-17T07:34:26.173Z,96657.50
2022-11-17T07:39:28.836Z,96656.44
2022-11-17T07:44:32.480Z,96664.19
2022-11-17T07:49:36.483Z,96657.81
2022-11-17T07:54:39.114Z,96669.06
2022-11-17T07:59:41.751Z,96679.47
2022-11-17T08:04:45.735Z,96695.75
2022-11-17T08:09:48.347Z,96707.25
2022-11-17T08:14:50.996Z,96722.47
2022-11-17T08:19:55.057Z,96727.28
2022-11-17T08:24:57.662Z,96737.66
2022-11-17T08:30:00.340Z,96750.78
2022-11-17T08:35:06.857Z,96747.59
2022-11-17T08:40:10.877Z,96753.19
2022-11-17T08:45:14.317Z,96752.63
2022-11-17T08:50:20.587Z,96756.69
2022-11-17T08:55:23.265Z,96765.78
2022-11-17T09:00:25.933Z,96755.09
2022-11-17T09:05:29.938Z,96779.19
2022-11-17T09:10:32.682Z,96768.03
2022-11-17T09:15:35.511Z,96780.88
2022-11-17T09:20:45.275Z,96785.16
2022-11-17T09:25:48.530Z,96791.88
2022-11-17T09:30:51.264Z,96801.75
2022-11-17T09:35:58.725Z,96814.88
2022-11-17T09:41:01.885Z,96821.56
2022-11-17T09:46:11.876Z,96819.44
2022-11-17T09:51:18.062Z,96826.72
2022-11-17T09:56:20.903Z,96822.06
2022-11-17T10:01:24.075Z,96829.22
2022-11-17T10:06:29.921Z,96838.19
2022-11-17T10:11:34.982Z,96836.47
2022-11-17T10:16:38.773Z,96839.22
2022-11-17T10:21:42.786Z,96851.66
2022-11-17T10:26:47.729Z,96856.63
2022-11-17T10:31:50.788Z,96861.00
2022-11-17T10:36:54.765Z,96866.81
2022-11-17T10:41:57.506Z,96844.16
2022-11-17T10:47:02.754Z,96856.50
2022-11-17T10:52:16.162Z,96861.13
2022-11-17T10:57:21.454Z,96853.34
2022-11-17T11:02:29.520Z,96864.38
2022-11-17T11:07:33.752Z,96867.88
2022-11-17T11:12:41.875Z,96862.28
2022-11-17T11:17:44.654Z,96869.25
2022-11-17T11:23:00.325Z,96873.56
2022-11-17T11:28:14.477Z,96883.50
2022-11-17T11:33:26.726Z,96884.06
2022-11-17T11:38:42.445Z,96886.22
2022-11-17T11:43:54.052Z,96891.84
2022-11-17T11:48:58.215Z,96901.53
2022-11-17T11:54:05.221Z,96898.00
2022-11-17T11:59:11.430Z,96895.63
2022-11-17T12:04:23.402Z,96905.03
2022-11-17T12:10:01.584Z,96906.06
2022-11-17T12:15:09.767Z,96896.09
2022-11-17T12:20:41.937Z,96906.84
2022-11-17T12:25:53.591Z,96903.34
2022-11-17T12:30:59.243Z,96904.72
2022-11-17T12:36:30.929Z,96904.94
2022-11-17T12:42:07.236Z,96911.97
2022-11-17T12:47:12.432Z,96914.09
2022-11-17T12:52:18.779Z,96918.41
2022-11-17T12:57:26.303Z,96920.28
2022-11-17T13:02:54.636Z,96926.47
2022-11-17T13:08:17.703Z,96929.69
2022-11-17T13:13:24.318Z,96944.75
2022-11-17T13:18:31.521Z,96945.81
2022-11-17T13:23:34.704Z,96943.41
2022-11-17T13:28:38.794Z,96937.25
2022-11-17T13:33:41.474Z,96943.66
2022-11-17T13:38:51.898Z,96934.00
2022-11-17T13:43:56.351Z,96941.25
2022-11-17T13:48:59.045Z,96938.00
2022-11-17T13:54:03.778Z,96946.84
2022-11-17T13:59:23.273Z,96936.38
2022-11-17T14:04:26.388Z,96934.22
2022-11-17T14:09:31.641Z,96938.19
2022-11-17T14:14:37.809Z,96942.75
2022-11-17T14:19:40.768Z,96948.38
2022-11-17T14:24:43.498Z,96954.25
2022-11-17T14:29:47.467Z,96947.31
2022-11-17T14:34:50.141Z,96950.06
2022-11-17T14:39:52.985Z,96954.94
2022-11-17T14:44:57.052Z,96956.56
2022-11-17T14:49:59.824Z,96960.09
2022-11-17T14:55:02.472Z,96963.28
2022-11-17T15:00:09.245Z,96956.84
2022-11-17T15:05:12.104Z,96971.09
2022-11-17T15:10:14.757Z,96978.06
2022-11-17T15:15:19.045Z,96978.06
2022-11-17T15:20:21.707Z,96983.72
2022-11-17T15:25:24.452Z,96978.59
2022-11-17T15:30:28.816Z,96991.50
2022-11-17T15:35:31.674Z,96993.66
2022-11-17T15:40:34.449Z,96999.56
2022-11-17T15:45:38.431Z,97002.25
2022-11-17T15:50:41.055Z,97003.06
2022-11-17T15:55:43.694Z,97007.38
2022-11-17T16:00:47.702Z,97013.81
2022-11-17T16:05:50.324Z,97017.31
2022-11-17T16:10:55.008Z,97025.09
2022-11-17T16:15:59.348Z,97037.97
2022-11-17T16:21:06.473Z,97039.88
2022-11-17T16:26:10.385Z,97036.66
2022-11-17T16:31:15.524Z,97043.69
2022-11-17T16:36:18.552Z,97050.91
2022-11-17T16:41:21.575Z,97057.13
2022-11-17T16:46:28.733Z,97052.25
2022-11-17T16:51:31.538Z,97066.75
2022-11-17T16:56:35.064Z,97063.28
2022-11-17T17:01:39.237Z,97060.84
2022-11-17T17:06:42.783Z,97063.50
2022-11-17T17:11:45.438Z,97060.84
2022-11-17T17:16:49.529Z,97067.56
2022-11-17T17:21:52.145Z,97079.16
2022-11-17T17:26:54.945Z,97082.94
2022-11-17T17:31:58.978Z,97080.47
2022-11-17T17:37:01.581Z,97086.38
2022-11-17T17:42:06.070Z,97082.88
2022-11-17T17:47:10.062Z,97082.31
2022-11-17T17:52:14.122Z,97085.28
2022-11-17T17:57:16.866Z,97101.66
2022-11-17T18:02:20.868Z,97106.53
2022-11-17T18:07:23.792Z,97115.69
2022-11-17T18:12:26.512Z,97117.25
2022-11-17T18:17:30.718Z,97122.66
2022-11-17T18:22:33.506Z,97126.44
2022-11-17T18:27:36.154Z,97117.28
2022-11-17T18:32:40.150Z,97125.06
2022-11-17T18:37:42.909Z,97128.00
2022-11-17T18:42:45.541Z,97139.84
2022-11-17T18:47:49.615Z,97137.97
2022-11-17T18:52:52.267Z,97148.44
2022-11-17T18:57:54.928Z,97155.16
2022-11-17T19:02:58.938Z,97158.38
2022-11-17T19:08:01.619Z,97164.00
2022-11-17T19:13:04.714Z,97161.59
2022-11-17T19:18:08.949Z,97168.31
2022-11-17T19:23:12.015Z,97168.84
2022-11-17T19:28:14.710Z,97171.56
2022-11-17T19:33:19.024Z,97174.78
2022-11-17T19:38:21.698Z,97180.72
2022-11-17T19:43:24.429Z,97189.31
2022-11-17T19:48:29.258Z,97201.09
2022-11-17T19:53:33.882Z,97201.16
2022-11-17T19:58:36.555Z,97214.00
2022-11-17T20:03:41.360Z,97217.22
2022-11-17T20:08:44.382Z,97231.72
2022-11-17T20:13:47.469Z,97231.69
2022-11-17T20:18:53.305Z,97234.34
2022-11-17T20:23:56.350Z,97234.97
2022-11-17T20:29:00.128Z,97249.22
2022-11-17T20:34:05.935Z,97249.50
2022-11-17T20:39:08.662Z,97253.53
2022-11-17T20:44:23.853Z,97248.91
2022-11-17T20:49:28.888Z,97264.50
2022-11-17T20:54:31.598Z,97275.78
2022-11-17T20:59:34.359Z,97272.53
2022-11-17T21:04:38.430Z,97285.97
2022-11-17T21:09:41.115Z,97283.84
2022-11-17T21:14:43.765Z,97296.84
2022-11-17T21:19:47.815Z,97298.97
2022-11-17T21:24:50.553Z,97304.59
2022-11-17T21:29:53.239Z,97301.88
2022-11-17T21:34:57.395Z,97308.03
2022-11-17T21:40:01.062Z,97314.44
2022-11-17T21:45:03.844Z,97317.06
2022-11-17T21:50:09.401Z,97321.06
2022-11-17T21:55:12.077Z,97320.78
2022-11-17T22:00:16.399Z,97316.06
2022-11-17T22:05:22.131Z,97332.22
2022-11-17T22:10:24.858Z,97332.72
2022-11-17T22:15:27.559Z,97333.03
2022-11-17T22:20:31.581Z,97321.47
2022-11-17T22:25:49.565Z,97325.16
2022-11-17T22:30:52.862Z,97335.91
2022-11-17T22:36:00.054Z,97343.44
2022-11-17T22:41:02.877Z,97342.84
2022-11-17T22:46:08.101Z,97352.78
2022-11-17T22:51:12.411Z,97356.50
2022-11-17T22:56:15.169Z,97351.38
2022-11-17T23:01:17.911Z,97365.00
2022-11-17T23:06:22.525Z,97371.59
2022-11-17T23:11:40.806Z,97365.13
2022-11-17T23:16:43.581Z,97379.56
2022-11-17T23:21:47.627Z,97378.88
2022-11-17T23:26:50.355Z,97369.69
2022-11-17T23:31:53.084Z,97373.13
2022-11-17T23:37:02.309Z,97381.91
2022-11-17T23:42:06.792Z,97381.81
2022-11-17T23:47:09.584Z,97389.56
2022-11-17T23:52:13.599Z,97386.06
2022-11-17T23:57:16.359Z,97387.13
